sensor_id;sensor_type;location;lat;lon;timestamp;temperature;humidity
46706;DHT22;33519;50.712;7.124;2023-04-24T00:00:33;11.50;99.90
46706;DHT22;33519;50.712;7.124;2023-04-24T00:03:00;11.50;99.90
46706;DHT22;33519;50.712;7.124;2023-04-24T00:05:27;11.60;99.90
46706;DHT22;33519;50.712;7.124;2023-04-24T00:07:53;11.60;99.90
46706;DHT22;33519;50.712;7.124;2023-04-24T00:10:21;11.60;99.90
46706;DHT22;33519;50.712;7.124;2023-04-24T00:12:47;11.50;99.90
46706;DHT22;33519;50.712;7.124;2023-04-24T00:15:14;11.50;99.90
46706;DHT22;33519;50.712;7.124;2023-04-24T00:17:41;11.60;99.90
46706;DHT22;33519;50.712;7.124;2023-04-24T00:20:08;11.60;99.90
46706;DHT22;33519;50.712;7.124;2023-04-24T00:22:36;11.60;99.90
46706;DHT22;33519;50.712;7.124;2023-04-24T00:25:03;11.60;99.90
46706;DHT22;33519;50.712;7.124;2023-04-24T00:27:29;11.60;99.90
46706;DHT22;33519;50.712;7.124;2023-04-24T00:29:56;11.60;99.90
46706;DHT22;33519;50.712;7.124;2023-04-24T00:32:23;11.70;99.90
46706;DHT22;33519;50.712;7.124;2023-04-24T00:34:49;11.70;99.90
46706;DHT22;33519;50.712;7.124;2023-04-24T00:37:16;11.60;99.90
46706;DHT22;33519;50.712;7.124;2023-04-24T00:39:42;11.60;99.90
46706;DHT22;33519;50.712;7.124;2023-04-24T00:42:10;11.60;99.90
46706;DHT22;33519;50.712;7.124;2023-04-24T00:47:10;11.60;99.90
46706;DHT22;33519;50.712;7.124;2023-04-24T00:49:37;11.60;99.90
46706;DHT22;33519;50.712;7.124;2023-04-24T00:52:04;11.60;99.90
46706;DHT22;33519;50.712;7.124;2023-04-24T00:54:35;11.60;99.90
46706;DHT22;33519;50.712;7.124;2023-04-24T00:57:02;11.60;99.90
46706;DHT22;33519;50.712;7.124;2023-04-24T00:59:29;11.60;99.90
46706;DHT22;33519;50.712;7.124;2023-04-24T01:01:57;11.60;99.90
46706;DHT22;33519;50.712;7.124;2023-04-24T01:04:24;11.60;99.90
46706;DHT22;33519;50.712;7.124;2023-04-24T01:06:51;11.60;99.90
46706;DHT22;33519;50.712;7.124;2023-04-24T01:09:21;11.60;99.90
46706;DHT22;33519;50.712;7.124;2023-04-24T01:11:49;11.50;99.90
46706;DHT22;33519;50.712;7.124;2023-04-24T01:14:16;11.50;99.90
46706;DHT22;33519;50.712;7.124;2023-04-24T01:16:42;11.50;99.90
46706;DHT22;33519;50.712;7.124;2023-04-24T01:19:09;11.50;99.90
46706;DHT22;33519;50.712;7.124;2023-04-24T01:21:37;11.50;99.90
46706;DHT22;33519;50.712;7.124;2023-04-24T01:24:04;11.50;99.90
46706;DHT22;33519;50.712;7.124;2023-04-24T01:26:31;11.50;99.90
46706;DHT22;33519;50.712;7.124;2023-04-24T01:28:58;11.40;99.90
46706;DHT22;33519;50.712;7.124;2023-04-24T01:31:25;11.30;99.90
46706;DHT22;33519;50.712;7.124;2023-04-24T01:33:52;11.30;99.90
46706;DHT22;33519;50.712;7.124;2023-04-24T01:36:19;11.20;99.90
46706;DHT22;33519;50.712;7.124;2023-04-24T01:38:46;11.10;99.90
46706;DHT22;33519;50.712;7.124;2023-04-24T01:41:15;11.10;99.90
46706;DHT22;33519;50.712;7.124;2023-04-24T01:43:42;11.10;99.90
46706;DHT22;33519;50.712;7.124;2023-04-24T01:46:09;11.00;99.90
46706;DHT22;33519;50.712;7.124;2023-04-24T01:48:36;11.00;99.90
46706;DHT22;33519;50.712;7.124;2023-04-24T01:51:02;10.90;99.90
46706;DHT22;33519;50.712;7.124;2023-04-24T01:53:29;10.90;99.90
46706;DHT22;33519;50.712;7.124;2023-04-24T01:55:56;10.90;99.90
46706;DHT22;33519;50.712;7.124;2023-04-24T01:58:23;10.80;99.90
46706;DHT22;33519;50.712;7.124;2023-04-24T02:00:49;10.70;99.90
46706;DHT22;33519;50.712;7.124;2023-04-24T02:03:16;10.60;99.90
46706;DHT22;33519;50.712;7.124;2023-04-24T02:05:44;10.60;99.90
46706;DHT22;33519;50.712;7.124;2023-04-24T02:08:11;10.50;99.90
46706;DHT22;33519;50.712;7.124;2023-04-24T02:10:38;10.50;99.90
46706;DHT22;33519;50.712;7.124;2023-04-24T02:13:04;10.50;99.90
46706;DHT22;33519;50.712;7.124;2023-04-24T02:15:31;10.40;99.90
46706;DHT22;33519;50.712;7.124;2023-04-24T02:17:58;10.40;99.90
46706;DHT22;33519;50.712;7.124;2023-04-24T02:20:25;10.30;99.90
46706;DHT22;33519;50.712;7.124;2023-04-24T02:22:51;10.30;99.90
46706;DHT22;33519;50.712;7.124;2023-04-24T02:25:18;10.20;99.90
46706;DHT22;33519;50.712;7.124;2023-04-24T02:27:44;10.10;99.90
46706;DHT22;33519;50.712;7.124;2023-04-24T02:30:12;10.10;99.90
46706;DHT22;33519;50.712;7.124;2023-04-24T02:32:39;10.00;99.90
46706;DHT22;33519;50.712;7.124;2023-04-24T02:35:06;10.00;99.90
46706;DHT22;33519;50.712;7.124;2023-04-24T02:37:33;9.90;99.90
46706;DHT22;33519;50.712;7.124;2023-04-24T02:39:59;9.80;99.90
46706;DHT22;33519;50.712;7.124;2023-04-24T02:42:26;9.70;99.90
46706;DHT22;33519;50.712;7.124;2023-04-24T02:44:53;9.60;99.90
46706;DHT22;33519;50.712;7.124;2023-04-24T02:47:19;9.60;99.90
46706;DHT22;33519;50.712;7.124;2023-04-24T02:49:46;9.50;99.90
46706;DHT22;33519;50.712;7.124;2023-04-24T02:52:13;9.50;99.90
46706;DHT22;33519;50.712;7.124;2023-04-24T02:54:41;9.50;99.90
46706;DHT22;33519;50.712;7.124;2023-04-24T02:57:07;9.40;99.90
46706;DHT22;33519;50.712;7.124;2023-04-24T02:59:34;9.40;99.90
46706;DHT22;33519;50.712;7.124;2023-04-24T03:02:00;9.30;99.90
46706;DHT22;33519;50.712;7.124;2023-04-24T03:04:27;9.20;99.90
46706;DHT22;33519;50.712;7.124;2023-04-24T03:06:54;9.20;99.90
46706;DHT22;33519;50.712;7.124;2023-04-24T03:09:21;9.20;99.90
46706;DHT22;33519;50.712;7.124;2023-04-24T03:11:47;9.10;99.90
46706;DHT22;33519;50.712;7.124;2023-04-24T03:14:16;9.10;99.90
46706;DHT22;33519;50.712;7.124;2023-04-24T03:16:42;9.00;99.90
46706;DHT22;33519;50.712;7.124;2023-04-24T03:19:09;9.00;99.90
46706;DHT22;33519;50.712;7.124;2023-04-24T03:21:36;9.00;99.90
46706;DHT22;33519;50.712;7.124;2023-04-24T03:24:07;8.90;99.90
46706;DHT22;33519;50.712;7.124;2023-04-24T03:26:34;8.90;99.90
46706;DHT22;33519;50.712;7.124;2023-04-24T03:29:00;8.90;99.90
46706;DHT22;33519;50.712;7.124;2023-04-24T03:31:27;8.90;99.90
46706;DHT22;33519;50.712;7.124;2023-04-24T03:33:54;8.90;99.90
46706;DHT22;33519;50.712;7.124;2023-04-24T03:36:20;8.90;99.90
46706;DHT22;33519;50.712;7.124;2023-04-24T03:38:47;8.90;99.90
46706;DHT22;33519;50.712;7.124;2023-04-24T03:41:14;8.80;99.90
46706;DHT22;33519;50.712;7.124;2023-04-24T03:43:40;8.80;99.90
46706;DHT22;33519;50.712;7.124;2023-04-24T03:46:07;8.80;99.90
46706;DHT22;33519;50.712;7.124;2023-04-24T03:48:36;8.80;99.90
46706;DHT22;33519;50.712;7.124;2023-04-24T03:51:02;8.70;99.90
46706;DHT22;33519;50.712;7.124;2023-04-24T03:53:29;8.70;99.90
46706;DHT22;33519;50.712;7.124;2023-04-24T03:55:56;8.70;99.90
46706;DHT22;33519;50.712;7.124;2023-04-24T03:58:22;8.60;99.90
46706;DHT22;33519;50.712;7.124;2023-04-24T04:00:49;8.60;99.90
46706;DHT22;33519;50.712;7.124;2023-04-24T04:03:16;8.60;99.90
46706;DHT22;33519;50.712;7.124;2023-04-24T04:05:43;8.50;99.90
46706;DHT22;33519;50.712;7.124;2023-04-24T04:08:10;8.50;99.90
46706;DHT22;33519;50.712;7.124;2023-04-24T04:10:36;8.50;99.90
46706;DHT22;33519;50.712;7.124;2023-04-24T04:13:03;8.50;99.90
46706;DHT22;33519;50.712;7.124;2023-04-24T04:17:59;8.50;99.90
46706;DHT22;33519;50.712;7.124;2023-04-24T04:20:25;8.50;99.90
46706;DHT22;33519;50.712;7.124;2023-04-24T04:22:52;8.50;99.90
46706;DHT22;33519;50.712;7.124;2023-04-24T04:25:19;8.40;99.90
46706;DHT22;33519;50.712;7.124;2023-04-24T04:27:46;8.40;99.90
46706;DHT22;33519;50.712;7.124;2023-04-24T04:30:14;8.40;99.90
46706;DHT22;33519;50.712;7.124;2023-04-24T04:32:41;8.40;99.90
46706;DHT22;33519;50.712;7.124;2023-04-24T04:35:07;8.40;99.90
46706;DHT22;33519;50.712;7.124;2023-04-24T04:37:35;8.50;99.90
46706;DHT22;33519;50.712;7.124;2023-04-24T04:40:02;8.40;99.90
46706;DHT22;33519;50.712;7.124;2023-04-24T04:42:38;8.40;99.90
46706;DHT22;33519;50.712;7.124;2023-04-24T04:45:09;8.50;99.90
46706;DHT22;33519;50.712;7.124;2023-04-24T04:47:37;8.50;99.90
46706;DHT22;33519;50.712;7.124;2023-04-24T04:50:04;8.50;99.90
46706;DHT22;33519;50.712;7.124;2023-04-24T04:52:31;8.60;99.90
46706;DHT22;33519;50.712;7.124;2023-04-24T04:54:58;8.60;99.90
46706;DHT22;33519;50.712;7.124;2023-04-24T04:57:25;8.70;99.90
46706;DHT22;33519;50.712;7.124;2023-04-24T04:59:51;8.70;99.90
46706;DHT22;33519;50.712;7.124;2023-04-24T05:02:18;8.70;99.90
46706;DHT22;33519;50.712;7.124;2023-04-24T05:04:45;8.80;99.90
46706;DHT22;33519;50.712;7.124;2023-04-24T05:07:12;8.80;99.90
46706;DHT22;33519;50.712;7.124;2023-04-24T05:09:39;8.80;99.90
46706;DHT22;33519;50.712;7.124;2023-04-24T05:12:06;8.80;99.90
46706;DHT22;33519;50.712;7.124;2023-04-24T05:14:33;8.80;99.90
46706;DHT22;33519;50.712;7.124;2023-04-24T05:17:00;8.80;99.90
46706;DHT22;33519;50.712;7.124;2023-04-24T05:19:27;8.80;99.90
46706;DHT22;33519;50.712;7.124;2023-04-24T05:21:54;8.90;99.90
46706;DHT22;33519;50.712;7.124;2023-04-24T05:24:20;8.90;99.90
46706;DHT22;33519;50.712;7.124;2023-04-24T05:26:47;8.90;99.90
46706;DHT22;33519;50.712;7.124;2023-04-24T05:29:14;8.90;99.90
46706;DHT22;33519;50.712;7.124;2023-04-24T05:31:41;8.90;99.90
46706;DHT22;33519;50.712;7.124;2023-04-24T05:34:07;9.00;99.90
46706;DHT22;33519;50.712;7.124;2023-04-24T05:36:34;9.00;99.90
46706;DHT22;33519;50.712;7.124;2023-04-24T05:39:01;9.10;99.90
46706;DHT22;33519;50.712;7.124;2023-04-24T05:41:27;9.10;99.90
46706;DHT22;33519;50.712;7.124;2023-04-24T05:43:54;9.10;99.90
46706;DHT22;33519;50.712;7.124;2023-04-24T05:46:22;9.10;99.90
46706;DHT22;33519;50.712;7.124;2023-04-24T05:48:48;9.20;99.90
46706;DHT22;33519;50.712;7.124;2023-04-24T05:51:15;9.20;99.90
46706;DHT22;33519;50.712;7.124;2023-04-24T05:53:42;9.20;99.90
46706;DHT22;33519;50.712;7.124;2023-04-24T05:56:08;9.30;99.90
46706;DHT22;33519;50.712;7.124;2023-04-24T05:58:35;9.30;99.90
46706;DHT22;33519;50.712;7.124;2023-04-24T06:01:03;9.30;99.90
46706;DHT22;33519;50.712;7.124;2023-04-24T06:03:33;9.30;99.90
46706;DHT22;33519;50.712;7.124;2023-04-24T06:06:00;9.30;99.90
46706;DHT22;33519;50.712;7.124;2023-04-24T06:08:26;9.30;99.90
46706;DHT22;33519;50.712;7.124;2023-04-24T06:10:53;9.40;99.90
46706;DHT22;33519;50.712;7.124;2023-04-24T06:13:20;9.40;99.90
46706;DHT22;33519;50.712;7.124;2023-04-24T06:15:47;9.30;99.90
46706;DHT22;33519;50.712;7.124;2023-04-24T06:18:13;9.30;99.90
46706;DHT22;33519;50.712;7.124;2023-04-24T06:20:40;9.30;99.90
46706;DHT22;33519;50.712;7.124;2023-04-24T06:23:07;9.20;99.90
46706;DHT22;33519;50.712;7.124;2023-04-24T06:25:33;9.30;99.90
46706;DHT22;33519;50.712;7.124;2023-04-24T06:28:00;9.40;99.90
46706;DHT22;33519;50.712;7.124;2023-04-24T06:30:27;9.50;99.90
46706;DHT22;33519;50.712;7.124;2023-04-24T06:32:54;9.60;99.90
46706;DHT22;33519;50.712;7.124;2023-04-24T06:35:31;9.80;99.90
46706;DHT22;33519;50.712;7.124;2023-04-24T06:37:57;9.80;99.90
46706;DHT22;33519;50.712;7.124;2023-04-24T06:40:24;9.80;99.90
46706;DHT22;33519;50.712;7.124;2023-04-24T06:42:51;9.70;99.90
46706;DHT22;33519;50.712;7.124;2023-04-24T06:45:18;9.60;99.90
46706;DHT22;33519;50.712;7.124;2023-04-24T06:47:45;9.60;99.90
46706;DHT22;33519;50.712;7.124;2023-04-24T06:50:11;9.60;99.90
46706;DHT22;33519;50.712;7.124;2023-04-24T06:52:38;9.60;99.90
46706;DHT22;33519;50.712;7.124;2023-04-24T06:55:05;9.50;99.90
46706;DHT22;33519;50.712;7.124;2023-04-24T06:57:32;9.50;99.90
46706;DHT22;33519;50.712;7.124;2023-04-24T06:59:59;9.50;99.90
46706;DHT22;33519;50.712;7.124;2023-04-24T07:02:25;9.50;99.90
46706;DHT22;33519;50.712;7.124;2023-04-24T07:04:52;9.50;99.90
46706;DHT22;33519;50.712;7.124;2023-04-24T07:07:19;9.30;99.90
46706;DHT22;33519;50.712;7.124;2023-04-24T07:09:45;9.20;99.90
46706;DHT22;33519;50.712;7.124;2023-04-24T07:12:12;9.10;99.90
46706;DHT22;33519;50.712;7.124;2023-04-24T07:14:39;9.00;99.90
46706;DHT22;33519;50.712;7.124;2023-04-24T07:17:06;8.90;99.90
46706;DHT22;33519;50.712;7.124;2023-04-24T07:19:33;8.90;99.90
46706;DHT22;33519;50.712;7.124;2023-04-24T07:22:00;8.90;99.90
46706;DHT22;33519;50.712;7.124;2023-04-24T07:24:27;8.90;99.90
46706;DHT22;33519;50.712;7.124;2023-04-24T07:26:55;8.80;99.90
46706;DHT22;33519;50.712;7.124;2023-04-24T07:29:23;8.80;99.90
46706;DHT22;33519;50.712;7.124;2023-04-24T07:31:49;8.80;99.90
46706;DHT22;33519;50.712;7.124;2023-04-24T07:34:16;8.90;99.90
46706;DHT22;33519;50.712;7.124;2023-04-24T07:36:43;8.80;99.90
46706;DHT22;33519;50.712;7.124;2023-04-24T07:39:09;8.90;99.90
46706;DHT22;33519;50.712;7.124;2023-04-24T07:41:36;8.90;99.90
46706;DHT22;33519;50.712;7.124;2023-04-24T07:44:02;8.80;99.90
46706;DHT22;33519;50.712;7.124;2023-04-24T07:48:59;8.80;99.90
46706;DHT22;33519;50.712;7.124;2023-04-24T07:51:39;8.80;99.90
46706;DHT22;33519;50.712;7.124;2023-04-24T07:54:06;8.80;99.90
46706;DHT22;33519;50.712;7.124;2023-04-24T07:56:33;8.80;99.90
46706;DHT22;33519;50.712;7.124;2023-04-24T07:59:01;8.70;99.90
46706;DHT22;33519;50.712;7.124;2023-04-24T08:01:27;8.80;99.90
46706;DHT22;33519;50.712;7.124;2023-04-24T08:03:54;8.70;99.90
46706;DHT22;33519;50.712;7.124;2023-04-24T08:06:21;8.70;99.90
46706;DHT22;33519;50.712;7.124;2023-04-24T08:08:48;8.70;99.90
46706;DHT22;33519;50.712;7.124;2023-04-24T08:11:15;8.60;99.90
46706;DHT22;33519;50.712;7.124;2023-04-24T08:13:42;8.60;99.90
46706;DHT22;33519;50.712;7.124;2023-04-24T08:16:09;8.50;99.90
46706;DHT22;33519;50.712;7.124;2023-04-24T08:18:36;8.50;99.90
46706;DHT22;33519;50.712;7.124;2023-04-24T08:21:02;8.50;99.90
46706;DHT22;33519;50.712;7.124;2023-04-24T08:23:29;8.50;99.90
46706;DHT22;33519;50.712;7.124;2023-04-24T08:25:56;8.40;99.90
46706;DHT22;33519;50.712;7.124;2023-04-24T08:28:24;8.30;99.90
46706;DHT22;33519;50.712;7.124;2023-04-24T08:30:51;8.30;99.90
46706;DHT22;33519;50.712;7.124;2023-04-24T08:33:24;8.30;99.90
46706;DHT22;33519;50.712;7.124;2023-04-24T08:35:53;8.30;99.90
46706;DHT22;33519;50.712;7.124;2023-04-24T08:38:30;8.20;99.90
46706;DHT22;33519;50.712;7.124;2023-04-24T08:40:58;8.10;99.90
46706;DHT22;33519;50.712;7.124;2023-04-24T08:43:33;8.10;99.90
46706;DHT22;33519;50.712;7.124;2023-04-24T08:46:00;8.00;99.90
46706;DHT22;33519;50.712;7.124;2023-04-24T08:48:29;7.80;99.90
46706;DHT22;33519;50.712;7.124;2023-04-24T08:50:58;7.60;99.90
46706;DHT22;33519;50.712;7.124;2023-04-24T08:53:25;7.50;99.90
46706;DHT22;33519;50.712;7.124;2023-04-24T08:55:53;7.40;99.90
46706;DHT22;33519;50.712;7.124;2023-04-24T08:58:20;7.40;99.90
46706;DHT22;33519;50.712;7.124;2023-04-24T09:00:47;7.30;99.90
46706;DHT22;33519;50.712;7.124;2023-04-24T09:03:15;7.30;99.90
46706;DHT22;33519;50.712;7.124;2023-04-24T09:05:43;7.30;99.90
46706;DHT22;33519;50.712;7.124;2023-04-24T09:08:14;7.30;99.90
46706;DHT22;33519;50.712;7.124;2023-04-24T09:10:42;7.30;99.90
46706;DHT22;33519;50.712;7.124;2023-04-24T09:13:09;7.40;99.90
46706;DHT22;33519;50.712;7.124;2023-04-24T09:15:39;7.50;99.90
46706;DHT22;33519;50.712;7.124;2023-04-24T09:18:06;7.50;99.90
46706;DHT22;33519;50.712;7.124;2023-04-24T09:20:33;7.50;99.90
46706;DHT22;33519;50.712;7.124;2023-04-24T09:23:02;7.50;99.90
46706;DHT22;33519;50.712;7.124;2023-04-24T09:25:32;7.50;99.90
46706;DHT22;33519;50.712;7.124;2023-04-24T09:28:03;7.50;99.90
46706;DHT22;33519;50.712;7.124;2023-04-24T09:30:31;7.50;99.90
46706;DHT22;33519;50.712;7.124;2023-04-24T09:33:13;7.60;99.90
46706;DHT22;33519;50.712;7.124;2023-04-24T09:35:41;7.70;99.90
46706;DHT22;33519;50.712;7.124;2023-04-24T09:38:09;7.70;99.90
46706;DHT22;33519;50.712;7.124;2023-04-24T09:40:37;7.80;99.90
46706;DHT22;33519;50.712;7.124;2023-04-24T09:43:09;7.80;99.90
46706;DHT22;33519;50.712;7.124;2023-04-24T09:45:37;7.90;99.90
46706;DHT22;33519;50.712;7.124;2023-04-24T09:48:04;7.90;99.90
46706;DHT22;33519;50.712;7.124;2023-04-24T09:50:32;7.70;99.90
46706;DHT22;33519;50.712;7.124;2023-04-24T09:53:05;7.60;99.90
46706;DHT22;33519;50.712;7.124;2023-04-24T09:55:32;7.60;99.90
46706;DHT22;33519;50.712;7.124;2023-04-24T09:57:59;7.70;99.90
46706;DHT22;33519;50.712;7.124;2023-04-24T10:00:27;7.70;99.90
46706;DHT22;33519;50.712;7.124;2023-04-24T10:03:04;7.70;99.90
46706;DHT22;33519;50.712;7.124;2023-04-24T10:05:31;7.80;99.90
46706;DHT22;33519;50.712;7.124;2023-04-24T10:10:30;7.80;99.90
46706;DHT22;33519;50.712;7.124;2023-04-24T10:12:57;7.80;99.90
46706;DHT22;33519;50.712;7.124;2023-04-24T10:15:26;7.80;99.90
46706;DHT22;33519;50.712;7.124;2023-04-24T10:17:53;7.90;99.90
46706;DHT22;33519;50.712;7.124;2023-04-24T10:20:20;7.90;99.90
46706;DHT22;33519;50.712;7.124;2023-04-24T10:22:48;7.90;99.90
46706;DHT22;33519;50.712;7.124;2023-04-24T10:25:16;7.90;99.90
46706;DHT22;33519;50.712;7.124;2023-04-24T10:27:43;7.90;99.90
46706;DHT22;33519;50.712;7.124;2023-04-24T10:30:11;7.90;99.90
46706;DHT22;33519;50.712;7.124;2023-04-24T10:32:40;7.90;99.90
46706;DHT22;33519;50.712;7.124;2023-04-24T10:35:08;7.90;99.90
46706;DHT22;33519;50.712;7.124;2023-04-24T10:37:35;8.00;99.90
46706;DHT22;33519;50.712;7.124;2023-04-24T10:40:03;8.00;99.90
46706;DHT22;33519;50.712;7.124;2023-04-24T10:42:30;8.10;99.90
46706;DHT22;33519;50.712;7.124;2023-04-24T10:44:56;8.20;99.90
46706;DHT22;33519;50.712;7.124;2023-04-24T10:47:24;8.10;99.90
46706;DHT22;33519;50.712;7.124;2023-04-24T10:49:51;8.10;99.90
46706;DHT22;33519;50.712;7.124;2023-04-24T10:52:18;8.00;99.90
46706;DHT22;33519;50.712;7.124;2023-04-24T10:54:48;8.10;99.90
46706;DHT22;33519;50.712;7.124;2023-04-24T10:59:49;8.20;99.90
46706;DHT22;33519;50.712;7.124;2023-04-24T11:02:17;8.40;99.90
46706;DHT22;33519;50.712;7.124;2023-04-24T11:04:44;8.40;99.90
46706;DHT22;33519;50.712;7.124;2023-04-24T11:07:12;8.40;99.90
46706;DHT22;33519;50.712;7.124;2023-04-24T11:09:38;8.50;99.90
46706;DHT22;33519;50.712;7.124;2023-04-24T11:12:09;8.70;99.90
46706;DHT22;33519;50.712;7.124;2023-04-24T11:17:38;11.00;99.90
46706;DHT22;33519;50.712;7.124;2023-04-24T11:20:07;11.60;99.90
46706;DHT22;33519;50.712;7.124;2023-04-24T11:22:52;12.00;99.90
46706;DHT22;33519;50.712;7.124;2023-04-24T11:25:21;12.00;99.90
46706;DHT22;33519;50.712;7.124;2023-04-24T11:27:48;12.00;99.90
46706;DHT22;33519;50.712;7.124;2023-04-24T11:30:20;11.00;99.90
46706;DHT22;33519;50.712;7.124;2023-04-24T11:32:47;10.90;99.90
46706;DHT22;33519;50.712;7.124;2023-04-24T11:35:22;10.70;99.90
46706;DHT22;33519;50.712;7.124;2023-04-24T11:37:54;10.20;99.90
46706;DHT22;33519;50.712;7.124;2023-04-24T11:40:24;9.80;99.90
46706;DHT22;33519;50.712;7.124;2023-04-24T11:42:52;10.20;99.90
46706;DHT22;33519;50.712;7.124;2023-04-24T11:45:24;10.50;99.90
46706;DHT22;33519;50.712;7.124;2023-04-24T11:50:28;10.60;99.90
46706;DHT22;33519;50.712;7.124;2023-04-24T11:52:56;10.60;99.90
46706;DHT22;33519;50.712;7.124;2023-04-24T11:57:50;10.60;99.90
46706;DHT22;33519;50.712;7.124;2023-04-24T12:00:21;10.20;99.90
46706;DHT22;33519;50.712;7.124;2023-04-24T12:02:48;10.20;99.90
46706;DHT22;33519;50.712;7.124;2023-04-24T12:05:26;10.20;99.90
46706;DHT22;33519;50.712;7.124;2023-04-24T12:07:55;10.40;99.90
46706;DHT22;33519;50.712;7.124;2023-04-24T12:10:25;10.40;99.90
46706;DHT22;33519;50.712;7.124;2023-04-24T12:12:52;10.90;99.90
46706;DHT22;33519;50.712;7.124;2023-04-24T12:15:19;11.30;99.90
46706;DHT22;33519;50.712;7.124;2023-04-24T12:17:50;11.50;99.90
46706;DHT22;33519;50.712;7.124;2023-04-24T12:20:28;11.20;99.90
46706;DHT22;33519;50.712;7.124;2023-04-24T12:22:56;11.30;99.90
46706;DHT22;33519;50.712;7.124;2023-04-24T12:25:24;10.90;99.90
46706;DHT22;33519;50.712;7.124;2023-04-24T12:27:55;11.10;99.90
46706;DHT22;33519;50.712;7.124;2023-04-24T12:30:26;11.00;99.90
46706;DHT22;33519;50.712;7.124;2023-04-24T12:32:59;11.30;99.90
46706;DHT22;33519;50.712;7.124;2023-04-24T12:35:30;12.10;99.90
46706;DHT22;33519;50.712;7.124;2023-04-24T12:38:13;12.80;99.90
46706;DHT22;33519;50.712;7.124;2023-04-24T12:40:43;13.50;99.90
46706;DHT22;33519;50.712;7.124;2023-04-24T12:43:22;12.90;99.90
46706;DHT22;33519;50.712;7.124;2023-04-24T12:45:49;12.90;99.90
46706;DHT22;33519;50.712;7.124;2023-04-24T12:48:16;12.50;99.90
46706;DHT22;33519;50.712;7.124;2023-04-24T12:50:43;12.70;99.90
46706;DHT22;33519;50.712;7.124;2023-04-24T12:53:13;13.10;99.90
46706;DHT22;33519;50.712;7.124;2023-04-24T12:55:40;13.90;99.90
46706;DHT22;33519;50.712;7.124;2023-04-24T12:58:09;14.50;99.90
46706;DHT22;33519;50.712;7.124;2023-04-24T13:00:35;14.60;99.90
46706;DHT22;33519;50.712;7.124;2023-04-24T13:03:03;14.00;99.90
46706;DHT22;33519;50.712;7.124;2023-04-24T13:05:30;13.90;99.90
46706;DHT22;33519;50.712;7.124;2023-04-24T13:07:57;13.50;99.90
46706;DHT22;33519;50.712;7.124;2023-04-24T13:10:24;13.10;99.90
46706;DHT22;33519;50.712;7.124;2023-04-24T13:12:51;12.50;99.90
46706;DHT22;33519;50.712;7.124;2023-04-24T13:15:18;12.20;99.90
46706;DHT22;33519;50.712;7.124;2023-04-24T13:17:45;11.80;99.90
46706;DHT22;33519;50.712;7.124;2023-04-24T13:20:14;11.70;99.90
46706;DHT22;33519;50.712;7.124;2023-04-24T13:22:40;11.60;99.90
46706;DHT22;33519;50.712;7.124;2023-04-24T13:25:11;11.50;99.90
46706;DHT22;33519;50.712;7.124;2023-04-24T13:28:04;11.70;99.90
46706;DHT22;33519;50.712;7.124;2023-04-24T13:30:37;11.80;99.90
46706;DHT22;33519;50.712;7.124;2023-04-24T13:33:06;12.00;99.90
46706;DHT22;33519;50.712;7.124;2023-04-24T13:35:33;12.20;99.90
46706;DHT22;33519;50.712;7.124;2023-04-24T13:37:59;13.20;99.90
46706;DHT22;33519;50.712;7.124;2023-04-24T13:40:27;12.60;99.90
46706;DHT22;33519;50.712;7.124;2023-04-24T13:42:54;12.90;99.90
46706;DHT22;33519;50.712;7.124;2023-04-24T13:45:21;12.70;99.90
46706;DHT22;33519;50.712;7.124;2023-04-24T13:47:53;13.30;99.90
46706;DHT22;33519;50.712;7.124;2023-04-24T13:50:21;14.10;99.90
46706;DHT22;33519;50.712;7.124;2023-04-24T13:52:48;14.40;99.90
46706;DHT22;33519;50.712;7.124;2023-04-24T13:55:15;15.00;99.90
46706;DHT22;33519;50.712;7.124;2023-04-24T13:57:41;15.00;99.90
46706;DHT22;33519;50.712;7.124;2023-04-24T14:00:11;16.00;99.90
46706;DHT22;33519;50.712;7.124;2023-04-24T14:02:42;15.70;99.90
46706;DHT22;33519;50.712;7.124;2023-04-24T14:05:13;15.00;99.20
46706;DHT22;33519;50.712;7.124;2023-04-24T14:07:41;14.20;99.90
46706;DHT22;33519;50.712;7.124;2023-04-24T14:10:17;14.10;99.90
46706;DHT22;33519;50.712;7.124;2023-04-24T14:12:44;13.40;99.90
46706;DHT22;33519;50.712;7.124;2023-04-24T14:15:10;13.10;99.90
46706;DHT22;33519;50.712;7.124;2023-04-24T14:20:08;12.60;99.90
46706;DHT22;33519;50.712;7.124;2023-04-24T14:22:35;12.50;99.90
46706;DHT22;33519;50.712;7.124;2023-04-24T14:25:02;12.20;99.90
46706;DHT22;33519;50.712;7.124;2023-04-24T14:27:29;12.30;99.90
46706;DHT22;33519;50.712;7.124;2023-04-24T14:29:56;12.80;99.90
46706;DHT22;33519;50.712;7.124;2023-04-24T14:32:23;12.70;99.90
46706;DHT22;33519;50.712;7.124;2023-04-24T14:34:50;12.50;99.90
46706;DHT22;33519;50.712;7.124;2023-04-24T14:37:16;12.50;99.90
46706;DHT22;33519;50.712;7.124;2023-04-24T14:39:43;12.00;99.90
46706;DHT22;33519;50.712;7.124;2023-04-24T14:42:23;12.00;99.90
46706;DHT22;33519;50.712;7.124;2023-04-24T14:44:50;12.10;99.90
46706;DHT22;33519;50.712;7.124;2023-04-24T14:47:17;12.40;99.90
46706;DHT22;33519;50.712;7.124;2023-04-24T14:49:46;12.60;99.90
46706;DHT22;33519;50.712;7.124;2023-04-24T14:52:13;13.30;99.90
46706;DHT22;33519;50.712;7.124;2023-04-24T14:54:40;13.50;99.90
46706;DHT22;33519;50.712;7.124;2023-04-24T14:57:07;13.80;99.90
46706;DHT22;33519;50.712;7.124;2023-04-24T14:59:33;15.20;99.90
46706;DHT22;33519;50.712;7.124;2023-04-24T15:02:00;15.60;99.90
46706;DHT22;33519;50.712;7.124;2023-04-24T15:04:41;15.00;98.70
46706;DHT22;33519;50.712;7.124;2023-04-24T15:07:08;16.20;96.40
46706;DHT22;33519;50.712;7.124;2023-04-24T15:09:34;16.10;96.30
46706;DHT22;33519;50.712;7.124;2023-04-24T15:12:04;16.80;95.70
46706;DHT22;33519;50.712;7.124;2023-04-24T15:14:31;18.10;92.90
46706;DHT22;33519;50.712;7.124;2023-04-24T15:16:57;18.80;90.50
46706;DHT22;33519;50.712;7.124;2023-04-24T15:19:24;18.80;86.00
46706;DHT22;33519;50.712;7.124;2023-04-24T15:21:54;19.50;85.50
46706;DHT22;33519;50.712;7.124;2023-04-24T15:24:21;18.20;80.60
46706;DHT22;33519;50.712;7.124;2023-04-24T15:26:47;16.70;86.00
46706;DHT22;33519;50.712;7.124;2023-04-24T15:29:14;16.60;90.30
46706;DHT22;33519;50.712;7.124;2023-04-24T15:31:41;17.10;89.50
46706;DHT22;33519;50.712;7.124;2023-04-24T15:34:08;18.00;87.30
46706;DHT22;33519;50.712;7.124;2023-04-24T15:36:35;17.90;85.00
46706;DHT22;33519;50.712;7.124;2023-04-24T15:39:02;16.50;89.20
46706;DHT22;33519;50.712;7.124;2023-04-24T15:41:32;16.00;91.80
46706;DHT22;33519;50.712;7.124;2023-04-24T15:44:00;16.30;91.50
46706;DHT22;33519;50.712;7.124;2023-04-24T15:46:27;15.70;91.30
46706;DHT22;33519;50.712;7.124;2023-04-24T15:48:53;14.90;92.70
46706;DHT22;33519;50.712;7.124;2023-04-24T15:51:22;15.30;92.30
46706;DHT22;33519;50.712;7.124;2023-04-24T15:53:49;16.40;91.00
46706;DHT22;33519;50.712;7.124;2023-04-24T15:56:16;15.20;91.70
46706;DHT22;33519;50.712;7.124;2023-04-24T15:58:42;14.90;92.40
46706;DHT22;33519;50.712;7.124;2023-04-24T16:01:09;14.60;94.20
46706;DHT22;33519;50.712;7.124;2023-04-24T16:03:36;14.40;94.60
46706;DHT22;33519;50.712;7.124;2023-04-24T16:06:03;14.10;94.80